createdAt,value
2023-03-04T00:01:26.122Z,60.28
2023-03-04T00:03:54.856Z,60.13
2023-03-04T00:06:22.959Z,60.05
2023-03-04T00:08:51.200Z,60.12
2023-03-04T00:11:19.975Z,60.16
2023-03-04T00:13:48.708Z,60.05
2023-03-04T00:16:16.859Z,60.13
2023-03-04T00:18:45.034Z,60.37
2023-03-04T00:21:13.016Z,60.43
2023-03-04T00:23:42.032Z,60.57
2023-03-04T00:26:10.140Z,60.70
2023-03-04T00:28:40.033Z,60.78
2023-03-04T00:31:10.460Z,61.02
2023-03-04T00:33:38.756Z,60.81
2023-03-04T00:36:07.547Z,60.61
2023-03-04T00:38:35.733Z,60.37
2023-03-04T00:41:03.896Z,60.42
2023-03-04T00:43:33.192Z,60.47
2023-03-04T00:46:01.372Z,60.36
2023-03-04T00:48:33.550Z,60.38
2023-03-04T00:51:01.903Z,60.52
2023-03-04T00:53:29.899Z,60.31
2023-03-04T00:55:58.019Z,60.32
2023-03-04T00:58:26.298Z,60.38
2023-03-04T01:00:55.145Z,60.45
2023-03-04T01:03:24.600Z,60.80
2023-03-04T01:05:53.509Z,60.83
2023-03-04T01:08:21.697Z,60.98
2023-03-04T01:10:49.693Z,61.34
2023-03-04T01:13:18.959Z,61.47
2023-03-04T01:15:47.012Z,61.63
2023-03-04T01:18:15.932Z,61.22
2023-03-04T01:20:44.204Z,61.44
2023-03-04T01:23:12.269Z,61.55
2023-03-04T01:25:40.445Z,61.52
2023-03-04T01:28:08.442Z,61.57
2023-03-04T01:30:36.438Z,61.71
2023-03-04T01:33:05.931Z,61.82
2023-03-04T01:35:36.636Z,62.03
2023-03-04T01:38:05.272Z,62.16
2023-03-04T01:40:33.418Z,62.25
2023-03-04T01:43:01.469Z,62.83
2023-03-04T01:45:29.586Z,63.09
2023-03-04T01:47:58.102Z,63.59
2023-03-04T01:50:33.034Z,63.57
2023-03-04T01:53:03.358Z,63.76
2023-03-04T01:55:32.170Z,63.50
2023-03-04T01:58:00.298Z,63.48
2023-03-04T02:00:32.919Z,63.24
2023-03-04T02:03:11.420Z,63.41
2023-03-04T02:05:45.514Z,63.77
2023-03-04T02:08:13.757Z,63.80
2023-03-04T02:10:45.158Z,64.00
2023-03-04T02:13:13.168Z,64.33
2023-03-04T02:15:42.538Z,64.33
2023-03-04T02:18:24.133Z,64.10
2023-03-04T02:20:54.944Z,64.04
2023-03-04T02:23:38.435Z,64.20
2023-03-04T02:26:09.773Z,64.15
2023-03-04T02:28:37.922Z,63.88
2023-03-04T02:31:06.159Z,63.76
2023-03-04T02:33:34.244Z,63.48
2023-03-04T02:36:02.248Z,63.62
2023-03-04T02:38:30.539Z,63.46
2023-03-04T02:40:58.841Z,63.46
2023-03-04T02:43:26.833Z,63.42
2023-03-04T02:45:56.779Z,63.31
2023-03-04T02:48:25.160Z,63.32
2023-03-04T02:50:53.704Z,63.44
2023-03-04T02:53:22.509Z,63.36
2023-03-04T02:55:50.901Z,63.45
2023-03-04T02:58:22.129Z,63.10
2023-03-04T03:00:53.153Z,63.47
2023-03-04T03:03:21.198Z,63.51
2023-03-04T03:05:49.942Z,63.71
2023-03-04T03:08:18.917Z,63.87
2023-03-04T03:10:50.377Z,64.01
2023-03-04T03:13:19.420Z,64.25
2023-03-04T03:15:50.046Z,64.36
2023-03-04T03:18:18.388Z,64.83
2023-03-04T03:20:46.845Z,64.72
2023-03-04T03:23:15.036Z,64.61
2023-03-04T03:25:43.159Z,64.62
2023-03-04T03:28:11.207Z,64.32
2023-03-04T03:30:39.517Z,64.14
2023-03-04T03:33:08.037Z,64.10
2023-03-04T03:35:38.428Z,64.18
2023-03-04T03:38:06.941Z,64.00
2023-03-04T03:40:37.001Z,63.49
2023-03-04T03:43:05.903Z,63.57
2023-03-04T03:45:33.841Z,63.59
2023-03-04T03:48:02.066Z,63.55
2023-03-04T03:50:30.366Z,63.50
2023-03-04T03:52:58.628Z,63.32
2023-03-04T03:55:26.951Z,63.28
2023-03-04T03:57:55.024Z,63.25
2023-03-04T04:00:23.397Z,63.26
2023-03-04T04:02:53.659Z,63.30
2023-03-04T04:05:21.766Z,63.07
2023-03-04T04:07:50.383Z,63.14
2023-03-04T04:10:20.554Z,63.52
2023-03-04T04:12:48.499Z,63.50
2023-03-04T04:15:17.954Z,63.31
2023-03-04T04:17:46.428Z,63.18
2023-03-04T04:20:14.425Z,63.38
2023-03-04T04:22:42.986Z,63.30
2023-03-04T04:25:11.075Z,63.49
2023-03-04T04:27:39.533Z,63.68
2023-03-04T04:30:08.247Z,63.38
2023-03-04T04:32:36.339Z,63.55
2023-03-04T04:35:05.435Z,63.48
2023-03-04T04:37:33.561Z,63.58
2023-03-04T04:40:02.888Z,63.72
2023-03-04T04:42:30.947Z,63.43
2023-03-04T04:45:00.859Z,63.82
2023-03-04T04:47:29.331Z,63.82
2023-03-04T04:49:57.429Z,63.80
2023-03-04T04:52:25.693Z,63.76
2023-03-04T04:54:53.783Z,63.85
2023-03-04T04:57:21.803Z,63.71
2023-03-04T04:59:49.881Z,63.85
2023-03-04T05:02:19.848Z,63.96
2023-03-04T05:04:47.784Z,64.08
2023-03-04T05:07:15.805Z,63.90
2023-03-04T05:09:43.994Z,64.08
2023-03-04T05:12:12.270Z,63.89
2023-03-04T05:14:43.380Z,63.91
2023-03-04T05:17:11.488Z,64.00
2023-03-04T05:19:39.473Z,63.97
2023-03-04T05:22:08.466Z,64.29
2023-03-04T05:24:36.664Z,64.29
2023-03-04T05:27:04.654Z,64.35
2023-03-04T05:29:32.603Z,64.51
2023-03-04T05:32:00.668Z,64.33
2023-03-04T05:34:28.924Z,63.92
2023-03-04T05:36:56.995Z,63.66
2023-03-04T05:39:25.273Z,63.54
2023-03-04T05:41:53.474Z,63.23
2023-03-04T05:44:22.237Z,62.99
2023-03-04T05:46:50.365Z,62.86
2023-03-04T05:49:23.908Z,62.78
2023-03-04T05:51:51.914Z,62.14
2023-03-04T05:54:20.067Z,61.98
2023-03-04T05:56:48.323Z,61.79
2023-03-04T05:59:20.505Z,61.64
2023-03-04T06:01:48.544Z,61.36
2023-03-04T06:04:17.241Z,61.28
2023-03-04T06:06:47.468Z,60.97
2023-03-04T06:09:16.873Z,60.91
2023-03-04T06:11:44.851Z,60.72
2023-03-04T06:14:17.806Z,60.48
2023-03-04T06:16:49.562Z,60.12
2023-03-04T06:19:17.658Z,60.29
2023-03-04T06:21:47.215Z,60.42
2023-03-04T06:24:15.446Z,60.53
2023-03-04T06:26:43.512Z,60.35
2023-03-04T06:29:11.687Z,60.22
2023-03-04T06:31:41.938Z,60.31
2023-03-04T06:34:12.085Z,60.50
2023-03-04T06:36:40.035Z,60.35
2023-03-04T06:39:12.309Z,60.03
2023-03-04T06:41:40.747Z,59.71
2023-03-04T06:44:08.797Z,59.29
2023-03-04T06:46:38.302Z,59.46
2023-03-04T06:49:08.048Z,59.20
2023-03-04T06:51:36.341Z,59.07
2023-03-04T06:54:05.072Z,58.94
2023-03-04T06:56:33.772Z,59.03
2023-03-04T06:59:02.054Z,59.29
2023-03-04T07:01:30.127Z,59.45
2023-03-04T07:03:58.289Z,59.39
2023-03-04T07:06:27.260Z,59.17
2023-03-04T07:08:55.855Z,58.76
2023-03-04T07:11:24.023Z,58.49
2023-03-04T07:13:52.096Z,58.15
2023-03-04T07:16:22.577Z,58.22
2023-03-04T07:18:51.524Z,58.15
2023-03-04T07:21:25.392Z,57.63
2023-03-04T07:23:53.485Z,57.14
2023-03-04T07:26:21.594Z,56.39
2023-03-04T07:28:49.995Z,56.09
2023-03-04T07:31:23.768Z,56.07
2023-03-04T07:33:51.935Z,56.34
2023-03-04T07:36:20.136Z,56.55
2023-03-04T07:38:49.321Z,56.73
2023-03-04T07:41:17.472Z,57.00
2023-03-04T07:43:45.555Z,56.94
2023-03-04T07:46:13.633Z,57.00
2023-03-04T07:48:42.739Z,56.87
2023-03-04T07:51:13.661Z,56.36
2023-03-04T07:53:42.085Z,56.36
2023-03-04T07:56:12.383Z,56.38
2023-03-04T07:58:40.583Z,56.86
2023-03-04T08:01:10.605Z,56.94
2023-03-04T08:03:38.849Z,56.81
2023-03-04T08:06:08.438Z,56.72
2023-03-04T08:08:36.689Z,56.10
2023-03-04T08:11:09.286Z,55.91
2023-03-04T08:13:38.038Z,55.64
2023-03-04T08:16:18.651Z,55.49
2023-03-04T08:18:48.917Z,55.86
2023-03-04T08:21:19.362Z,56.00
2023-03-04T08:23:50.195Z,55.58
2023-03-04T08:26:25.994Z,55.19
2023-03-04T08:28:54.691Z,55.26
2023-03-04T08:31:22.998Z,55.09
2023-03-04T08:33:53.041Z,55.03
2023-03-04T08:36:21.058Z,55.37
2023-03-04T08:38:49.558Z,55.25
2023-03-04T08:41:18.073Z,54.89
2023-03-04T08:43:46.119Z,54.91
2023-03-04T08:46:14.622Z,54.83
2023-03-04T08:48:42.543Z,54.76
2023-03-04T08:51:12.344Z,55.05
2023-03-04T08:53:40.498Z,55.14
2023-03-04T08:56:09.879Z,55.20
2023-03-04T08:58:38.604Z,55.03
2023-03-04T09:01:09.547Z,55.06
2023-03-04T09:03:46.089Z,55.39
2023-03-04T09:06:15.339Z,55.58
2023-03-04T09:08:44.985Z,55.44
2023-03-04T09:11:17.566Z,55.11
2023-03-04T09:13:46.123Z,55.31
2023-03-04T09:16:16.608Z,55.13
2023-03-04T09:18:45.008Z,55.57
2023-03-04T09:21:13.078Z,56.05
2023-03-04T09:23:41.618Z,55.74
2023-03-04T09:26:23.594Z,55.82
2023-03-04T09:28:56.317Z,55.98
2023-03-04T09:31:24.742Z,56.06
2023-03-04T09:33:53.156Z,55.86
2023-03-04T09:36:21.543Z,55.58
2023-03-04T09:38:50.750Z,55.27
2023-03-04T09:41:22.091Z,54.87
2023-03-04T09:43:50.195Z,54.86
2023-03-04T09:46:38.416Z,54.96
2023-03-04T09:49:07.542Z,55.07
2023-03-04T09:51:49.173Z,55.02
2023-03-04T09:54:41.890Z,54.73
2023-03-04T09:57:18.799Z,55.20
2023-03-04T09:59:56.832Z,54.83
2023-03-04T10:02:38.418Z,54.23
2023-03-04T10:05:06.559Z,54.47
2023-03-04T10:07:36.659Z,54.48
2023-03-04T10:10:10.810Z,53.82
2023-03-04T10:12:40.409Z,53.07
2023-03-04T10:15:19.070Z,53.02
2023-03-04T10:17:48.407Z,52.50
2023-03-04T10:20:26.983Z,52.30
2023-03-04T10:23:10.522Z,51.88
2023-03-04T10:25:46.757Z,51.42
2023-03-04T10:28:19.023Z,51.78
2023-03-04T10:30:52.996Z,52.30
2023-03-04T10:33:23.873Z,52.62
2023-03-04T10:36:30.547Z,52.65
2023-03-04T10:39:05.557Z,52.28
2023-03-04T10:41:34.088Z,52.45
2023-03-04T10:44:14.476Z,52.23
2023-03-04T10:46:44.205Z,52.10
2023-03-04T10:49:19.472Z,51.73
2023-03-04T10:52:30.754Z,51.19
2023-03-04T10:55:00.653Z,51.39
2023-03-04T10:57:36.850Z,51.09
2023-03-04T11:00:17.171Z,51.33
2023-03-04T11:02:46.695Z,51.40
2023-03-04T11:05:14.865Z,51.22
2023-03-04T11:07:55.149Z,51.39
2023-03-04T11:10:37.573Z,51.72
2023-03-04T11:13:11.634Z,52.20
2023-03-04T11:16:06.155Z,51.49
2023-03-04T11:18:52.580Z,50.87
2023-03-04T11:21:25.177Z,51.67
2023-03-04T11:24:01.689Z,51.26
2023-03-04T11:26:57.696Z,51.57
2023-03-04T11:29:38.966Z,51.68
2023-03-04T11:32:11.905Z,50.66
2023-03-04T11:34:44.589Z,50.57
2023-03-04T11:37:28.064Z,50.41
2023-03-04T11:40:08.892Z,51.08
2023-03-04T11:43:27.474Z,50.80
2023-03-04T11:46:37.563Z,50.03
2023-03-04T11:49:08.399Z,49.21
2023-03-04T11:51:39.883Z,49.23
2023-03-04T11:54:25.370Z,49.40
2023-03-04T11:56:57.368Z,49.86
2023-03-04T11:59:43.895Z,49.89
2023-03-04T12:02:15.351Z,50.09
2023-03-04T12:04:46.479Z,50.18
2023-03-04T12:07:52.734Z,49.28
2023-03-04T12:10:48.035Z,48.93
2023-03-04T12:13:21.137Z,48.51
2023-03-04T12:16:31.546Z,48.64
2023-03-04T12:19:24.404Z,48.29
2023-03-04T12:22:11.679Z,48.15
2023-03-04T12:25:15.180Z,48.06
2023-03-04T12:27:53.914Z,48.38
2023-03-04T12:31:00.026Z,48.72
2023-03-04T12:33:48.928Z,48.60
2023-03-04T12:36:17.107Z,48.62
2023-03-04T12:39:00.663Z,48.85
2023-03-04T12:41:37.956Z,48.79
2023-03-04T12:44:12.606Z,48.77
2023-03-04T12:46:46.447Z,48.40
2023-03-04T12:49:35.452Z,48.67
2023-03-04T12:52:23.387Z,49.25
2023-03-04T12:54:57.848Z,49.52
2023-03-04T12:57:27.904Z,48.55
2023-03-04T13:00:00.713Z,48.17
2023-03-04T13:02:55.146Z,48.38
2023-03-04T13:05:26.759Z,47.37
2023-03-04T13:08:04.595Z,46.93
2023-03-04T13:10:36.908Z,46.77
2023-03-04T13:13:05.046Z,46.97
2023-03-04T13:15:35.278Z,46.81
2023-03-04T13:18:33.407Z,46.94
2023-03-04T13:21:13.859Z,46.67
2023-03-04T13:23:42.708Z,45.86
2023-03-04T13:26:21.908Z,45.77
2023-03-04T13:29:11.359Z,45.54
2023-03-04T13:32:11.933Z,45.71
2023-03-04T13:34:53.876Z,46.29
2023-03-04T13:37:27.710Z,46.74
2023-03-04T13:40:23.339Z,46.53
2023-03-04T13:42:52.285Z,47.32
2023-03-04T13:45:37.177Z,47.93
2023-03-04T13:48:08.396Z,48.09
2023-03-04T13:50:46.656Z,48.14
2023-03-04T13:53:29.952Z,47.49
2023-03-04T13:56:12.051Z,47.37
2023-03-04T13:58:40.146Z,47.36
2023-03-04T14:01:25.940Z,47.33
2023-03-04T14:03:54.622Z,47.38
2023-03-04T14:06:30.171Z,47.86
2023-03-04T14:08:58.274Z,47.81
2023-03-04T14:11:33.160Z,47.59
2023-03-04T14:14:06.945Z,47.75
2023-03-04T14:16:40.245Z,47.67
2023-03-04T14:19:15.273Z,47.91
2023-03-04T14:21:47.199Z,48.37
2023-03-04T14:24:18.679Z,48.50
2023-03-04T14:26:47.083Z,48.51
2023-03-04T14:29:34.494Z,48.17
2023-03-04T14:32:02.951Z,48.55
2023-03-04T14:34:35.532Z,48.76
2023-03-04T14:37:05.804Z,48.99
2023-03-04T14:39:35.911Z,48.95
2023-03-04T14:42:10.070Z,48.69
2023-03-04T14:44:40.807Z,48.69
2023-03-04T14:47:15.005Z,48.31
2023-03-04T14:49:44.016Z,48.17
2023-03-04T14:52:42.233Z,48.24
2023-03-04T14:55:18.990Z,48.51
2023-03-04T14:57:48.932Z,48.69
2023-03-04T15:00:24.770Z,48.72
2023-03-04T15:03:21.735Z,48.86
2023-03-04T15:05:52.454Z,49.24
2023-03-04T15:08:25.958Z,49.17
2023-03-04T15:11:04.886Z,49.23
2023-03-04T15:13:39.861Z,49.53
2023-03-04T15:16:09.984Z,49.90
2023-03-04T15:18:38.411Z,50.17
2023-03-04T15:21:29.523Z,50.24
2023-03-04T15:23:57.851Z,50.50
2023-03-04T15:26:27.308Z,50.64
2023-03-04T15:28:56.093Z,50.96
2023-03-04T15:31:25.914Z,51.24
2023-03-04T15:33:55.006Z,51.43
2023-03-04T15:36:23.327Z,51.70
2023-03-04T15:38:52.790Z,51.97
2023-03-04T15:41:23.359Z,52.00
2023-03-04T15:43:54.719Z,52.22
2023-03-04T15:46:22.705Z,52.41
2023-03-04T15:48:50.701Z,52.17
2023-03-04T15:51:22.393Z,51.91
2023-03-04T15:53:54.144Z,51.54
2023-03-04T15:56:24.444Z,51.77
2023-03-04T15:58:57.167Z,51.60
2023-03-04T16:01:27.459Z,51.36
2023-03-04T16:03:55.824Z,51.43
2023-03-04T16:06:25.096Z,50.80
2023-03-04T16:08:54.264Z,50.57
2023-03-04T16:11:23.911Z,50.37
2023-03-04T16:13:51.995Z,50.79
2023-03-04T16:16:21.151Z,50.89
2023-03-04T16:18:49.773Z,51.03
2023-03-04T16:21:19.328Z,51.35
2023-03-04T16:23:47.915Z,51.27
2023-03-04T16:26:18.146Z,51.49
2023-03-04T16:28:46.538Z,51.35
2023-03-04T16:31:15.314Z,51.25
2023-03-04T16:33:44.646Z,51.24
2023-03-04T16:36:23.431Z,51.16
2023-03-04T16:38:51.955Z,50.85
2023-03-04T16:41:20.970Z,50.75
2023-03-04T16:43:48.917Z,50.75
2023-03-04T16:46:22.220Z,50.53
2023-03-04T16:48:50.338Z,50.60
2023-03-04T16:51:20.197Z,50.61
2023-03-04T16:53:49.770Z,50.78
2023-03-04T16:56:18.512Z,50.96
2023-03-04T16:58:47.274Z,51.11
2023-03-04T17:01:22.870Z,51.24
2023-03-04T17:03:51.000Z,51.61
2023-03-04T17:06:20.850Z,51.74
2023-03-04T17:08:48.780Z,52.05
2023-03-04T17:11:22.421Z,52.04
2023-03-04T17:13:52.514Z,51.98
2023-03-04T17:16:21.500Z,52.43
2023-03-04T17:18:50.488Z,52.43
2023-03-04T17:21:23.700Z,52.56
2023-03-04T17:23:52.110Z,52.71
2023-03-04T17:26:22.793Z,52.83
2023-03-04T17:28:51.678Z,52.74
2023-03-04T17:31:19.925Z,52.93
2023-03-04T17:33:48.053Z,52.70
2023-03-04T17:36:16.590Z,52.91
2023-03-04T17:38:44.576Z,52.90
2023-03-04T17:41:16.185Z,52.92
2023-03-04T17:43:45.739Z,53.20
2023-03-04T17:46:14.887Z,53.33
2023-03-04T17:48:43.422Z,53.24
2023-03-04T17:51:12.624Z,53.40
2023-03-04T17:53:41.407Z,53.20
2023-03-04T17:56:11.296Z,53.21
2023-03-04T17:58:39.907Z,53.48
2023-03-04T18:01:18.956Z,53.55
2023-03-04T18:03:47.913Z,53.59
2023-03-04T18:06:17.348Z,53.63
2023-03-04T18:08:49.342Z,53.91
2023-03-04T18:11:18.302Z,54.16
2023-03-04T18:13:46.586Z,54.28
2023-03-04T18:16:16.651Z,54.24
2023-03-04T18:18:45.676Z,54.23
2023-03-04T18:21:14.809Z,53.97
2023-03-04T18:23:43.247Z,53.82
2023-03-04T18:26:11.932Z,53.61
2023-03-04T18:28:39.839Z,53.39
2023-03-04T18:31:08.063Z,53.70
2023-03-04T18:33:37.893Z,53.89
2023-03-04T18:36:08.185Z,54.09
2023-03-04T18:38:36.182Z,53.89
2023-03-04T18:41:06.400Z,54.01
2023-03-04T18:43:35.016Z,54.15
2023-03-04T18:46:06.925Z,54.17
2023-03-04T18:48:41.832Z,54.25
2023-03-04T18:51:09.876Z,54.51
2023-03-04T18:53:38.508Z,54.72
2023-03-04T18:56:15.275Z,55.15
2023-03-04T18:58:44.366Z,55.05
2023-03-04T19:01:12.850Z,55.30
2023-03-04T19:03:40.973Z,55.47
2023-03-04T19:06:09.294Z,55.49
2023-03-04T19:08:41.615Z,55.59
2023-03-04T19:11:10.089Z,55.51
2023-03-04T19:13:38.268Z,55.94
2023-03-04T19:16:07.206Z,55.72
2023-03-04T19:18:35.324Z,55.87
2023-03-04T19:21:05.323Z,55.76
2023-03-04T19:23:34.925Z,55.69
2023-03-04T19:26:03.788Z,55.82
2023-03-04T19:28:32.225Z,55.99
2023-03-04T19:31:05.713Z,55.65
2023-03-04T19:33:36.687Z,55.96
2023-03-04T19:36:05.856Z,55.75
2023-03-04T19:38:34.127Z,56.07
2023-03-04T19:41:12.442Z,56.11
2023-03-04T19:43:40.799Z,56.26
2023-03-04T19:46:10.076Z,56.22
2023-03-04T19:48:38.773Z,56.05
2023-03-04T19:51:15.568Z,56.07
2023-03-04T19:53:43.587Z,56.19
2023-03-04T19:56:11.609Z,55.86
2023-03-04T19:58:40.102Z,55.66
2023-03-04T20:01:20.017Z,55.86
2023-03-04T20:03:48.504Z,55.98
2023-03-04T20:06:16.708Z,55.97
2023-03-04T20:08:44.681Z,55.68
2023-03-04T20:11:12.863Z,55.30
2023-03-04T20:13:46.077Z,55.38
2023-03-04T20:16:15.084Z,55.70
2023-03-04T20:18:43.174Z,55.79
2023-03-04T20:21:17.704Z,55.89
2023-03-04T20:23:46.048Z,56.01
2023-03-04T20:26:14.184Z,56.03
2023-03-04T20:28:51.114Z,56.10
2023-03-04T20:31:23.400Z,56.24
2023-03-04T20:33:52.738Z,56.50
2023-03-04T20:36:22.630Z,56.02
2023-03-04T20:38:57.977Z,55.61
2023-03-04T20:41:30.661Z,55.54
2023-03-04T20:44:02.615Z,55.53
2023-03-04T20:46:32.340Z,55.55
2023-03-04T20:49:08.421Z,55.44
2023-03-04T20:51:36.980Z,55.33
2023-03-04T20:54:05.365Z,54.90
2023-03-04T20:56:33.493Z,54.82
2023-03-04T20:59:03.745Z,54.86
2023-03-04T21:01:32.077Z,55.03
2023-03-04T21:04:00.709Z,54.97
2023-03-04T21:06:29.293Z,54.71
2023-03-04T21:09:04.125Z,54.51
2023-03-04T21:11:32.608Z,54.28
2023-03-04T21:14:00.776Z,54.31
2023-03-04T21:16:30.158Z,54.58
2023-03-04T21:18:58.376Z,54.38
2023-03-04T21:21:31.112Z,54.45
2023-03-04T21:23:59.309Z,54.72
2023-03-04T21:26:27.493Z,54.82
2023-03-04T21:28:55.555Z,54.98
2023-03-04T21:31:25.629Z,55.00
2023-03-04T21:33:54.618Z,54.97
2023-03-04T21:36:23.395Z,54.88
2023-03-04T21:38:51.759Z,55.05
2023-03-04T21:41:22.277Z,54.81
2023-03-04T21:43:51.375Z,55.05
2023-03-04T21:46:19.402Z,54.90
2023-03-04T21:48:48.322Z,54.89
2023-03-04T21:51:18.563Z,54.95
2023-03-04T21:53:47.387Z,55.34
2023-03-04T21:56:16.168Z,55.30
2023-03-04T21:58:45.860Z,55.49
2023-03-04T22:01:19.050Z,55.32
2023-03-04T22:03:51.616Z,55.49
2023-03-04T22:06:22.147Z,55.28
2023-03-04T22:08:55.019Z,55.22
2023-03-04T22:11:23.801Z,55.37
2023-03-04T22:13:55.462Z,55.01
2023-03-04T22:16:27.501Z,55.06
2023-03-04T22:18:55.673Z,55.11
2023-03-04T22:21:23.800Z,55.25
2023-03-04T22:23:52.973Z,55.41
2023-03-04T22:26:26.884Z,55.29
2023-03-04T22:28:54.880Z,55.16
2023-03-04T22:31:30.729Z,55.38
2023-03-04T22:34:03.007Z,55.15
2023-03-04T22:36:36.000Z,55.27
2023-03-04T22:39:05.238Z,55.34
2023-03-04T22:41:35.112Z,55.51
2023-03-04T22:44:03.280Z,55.67
2023-03-04T22:46:36.370Z,55.60
2023-03-04T22:49:11.888Z,55.64
2023-03-04T22:51:44.014Z,55.69
2023-03-04T22:54:14.182Z,55.86
2023-03-04T22:56:42.757Z,56.12
2023-03-04T22:59:10.950Z,55.71
2023-03-04T23:01:39.957Z,56.05
2023-03-04T23:04:08.005Z,56.20
2023-03-04T23:06:37.799Z,55.97
2023-03-04T23:09:08.256Z,56.39
2023-03-04T23:11:36.967Z,56.40
2023-03-04T23:14:07.358Z,56.96
2023-03-04T23:16:44.548Z,56.90
2023-03-04T23:19:14.625Z,57.37
2023-03-04T23:21:42.771Z,57.68
2023-03-04T23:24:11.172Z,58.86
2023-03-04T23:26:40.118Z,59.26
2023-03-04T23:29:09.408Z,59.82
2023-03-04T23:31:38.294Z,59.61
2023-03-04T23:34:07.877Z,59.06
2023-03-04T23:36:36.493Z,59.18
2023-03-04T23:39:05.691Z,58.92
2023-03-04T23:41:35.117Z,58.80
2023-03-04T23:44:03.475Z,58.37
2023-03-04T23:46:34.500Z,58.16
2023-03-04T23:49:02.729Z,57.66
2023-03-04T23:51:30.925Z,56.63
2023-03-04T23:53:59.443Z,56.17
2023-03-04T23:56:29.407Z,55.51
2023-03-04T23:58:58.556Z,55.39
